Latest Coastal Weather Observations for Green Cape

IDN60701

Issued at 10:51 am EST Friday 14 August 2020 (issued every 10 minutes, with the page automatically refreshed every 10 minutes)

About coastal observations | Map of coastal stations | Coastal observations for NSW | Marine services | Other Formats
Station Details ID: 069137 Name: GREEN CAPE AWS Lat: -37.26 Lon: 150.05 Height: 19.4 m
Data from the previous 72 hours. | See also: Recent months at Green Cape
Date/Time
EST
Wind Sea
Height
m
Swell Vis
km
Cloud Weather Temp
°C
Press
hPa
Rain since
9am
mm
Dir  Spd
kts
Gust
kts
Height
m
Period
s
Dir
14/10:30am N 11 13 - - - - - - - 16.5 1015.1 0.0
14/10:00am N 7 8 - - - - - - - 16.2 1015.1 0.0
14/09:30am N 7 8 - - - - - - - 15.7 1015.2 0.0
14/09:00am N 4 5 - - - - - - - 15.5 1015.2 0.0
14/08:30am WNW 5 5 - - - - - - - 12.3 1014.7 0.0
14/08:00am WNW 4 5 - - - - - - - 11.6 1014.7 0.0
14/07:30am WNW 1 3 - - - - - - - 12.4 1014.9 0.0
14/07:00am CALM 0 0 - - - - - - - 11.6 1014.7 0.0
14/06:30am WNW 3 4 - - - - - - - 11.1 1014.5 0.0
14/06:00am WNW 5 6 - - - - - - - 11.3 1014.5 0.0
14/05:30am NW 3 3 - - - - - - - 12.1 1014.2 0.0
14/05:00am NW 3 5 - - - - - - - 12.4 1014.0 0.0
14/04:30am NNW 4 6 - - - - - - - 12.5 1014.0 0.0
14/04:00am W 3 3 - - - - - - - 12.6 1013.8 0.0
14/03:30am W 2 3 - - - - - - - 12.4 1014.0 0.0
14/03:00am W 4 4 - - - - - - - 13.1 1014.4 0.0
14/02:30am W 3 4 - - - - - - - 13.3 1014.6 0.0
14/02:00am W 2 3 - - - - - - - 12.8 1014.8 0.0
14/01:30am W 4 5 - - - - - - - 12.1 1015.1 0.0
14/01:00am NW 2 2 - - - - - - - 12.8 1014.9 0.0
14/12:30am NW 3 3 - - - - - - - 12.7 1014.9 0.0
14/12:00am W 2 3 - - - - - - - 12.1 1015.1 0.0
 
Date/Time
EST
Wind Sea
Height
m
Swell Vis
km
Cloud Weather Temp
°C
Press
hPa
Rain since
9am
mm
Dir  Spd
kts
Gust
kts
Height
m
Period
s
Dir
13/11:30pm CALM 0 0 - - - - - - - 12.6 1015.0 0.0
13/11:00pm CALM 0 0 - - - - - - - 12.6 1015.0 0.0
13/10:30pm CALM 0 0 - - - - - - - 13.0 1015.1 0.0
13/10:00pm W 2 3 - - - - - - - 13.0 1015.2 0.0
13/09:30pm W 1 2 - - - - - - - 13.3 1015.1 0.0
13/09:00pm W 1 1 - - - - - - - 13.5 1015.1 0.0
13/08:30pm W 4 5 - - - - - - - 14.3 1014.8 0.0
13/08:00pm W 2 2 - - - - - - - 13.8 1014.4 0.0
13/07:30pm W 4 5 - - - - - - - 14.0 1014.2 0.0
13/07:00pm W 1 2 - - - - - - - 14.4 1013.7 0.0
13/06:30pm W 3 4 - - - - - - - 14.1 1013.6 0.0
13/06:00pm W 2 3 - - - - - - - 14.3 1013.2 0.0
13/05:30pm W 1 2 - - - - - - - 14.9 1012.9 0.0
13/05:00pm W 1 1 - - - - - - - 15.6 1012.5 0.0
13/04:30pm W 2 3 - - - - - - - 16.8 1012.2 0.0
13/04:00pm W 2 2 - - - - - - - 17.1 1012.2 0.0
13/03:30pm W 1 2 - - - - - - - 16.6 1012.2 0.0
13/03:00pm W 2 3 - - - - - - - 18.5 1012.0 0.0
13/02:30pm W 3 4 - - - - - - - 18.5 1011.8 0.0
13/02:00pm W 2 3 - - - - - - - 16.8 1011.7 0.0
13/01:30pm W 2 3 - - - - - - - 17.9 1011.9 0.0
13/01:00pm W 3 4 - - - - - - - 18.7 1012.0 0.0
13/12:30pm W 4 4 - - - - - - - 19.1 1012.3 0.0
13/12:00pm W 3 3 - - - - - - - 18.2 1012.6 0.0
13/11:30am W 3 3 - - - - - - - 17.3 1012.7 0.0
13/11:00am W 2 3 - - - - - - - 15.9 1013.0 0.0
13/10:30am W 3 3 - - - - - - - 15.8 1013.0 0.0
13/10:00am W 5 6 - - - - - - - 15.0 1013.1 0.0
13/09:30am W 6 7 - - - - - - - 14.2 1013.0 0.0
13/09:00am W 8 10 - - - - - - - 13.0 1012.9 0.0
13/08:30am W 9 10 - - - - - - - 12.3 1012.7 0.0
13/08:00am W 8 9 - - - - - - - 12.1 1012.3 0.0
13/07:30am W 8 9 - - - - - - - 11.8 1012.0 0.0
13/07:00am W 7 8 - - - - - - - 11.3 1011.4 0.0
13/06:30am W 6 7 - - - - - - - 11.4 1010.9 0.0
13/06:00am W 6 6 - - - - - - - 12.1 1010.7 0.0
13/05:30am W 5 7 - - - - - - - 11.8 1010.6 0.0
13/05:00am W 5 7 - - - - - - - 12.5 1010.4 0.0
13/04:30am WNW 5 8 - - - - - - - 12.2 1010.2 0.0
13/04:00am W 7 9 - - - - - - - 12.4 1010.0 0.0
13/03:30am WNW 5 7 - - - - - - - 12.3 1009.8 0.0
13/03:00am W 7 8 - - - - - - - 12.2 1010.0 0.0
13/02:30am WNW 5 7 - - - - - - - 11.5 1010.1 0.0
13/02:00am WNW 4 7 - - - - - - - 11.4 1010.1 0.0
13/01:30am CALM 0 0 - - - - - - - 11.6 1010.0 0.0
13/01:00am WNW 6 7 - - - - - - - 12.0 1010.1 0.0
13/12:30am N 5 7 - - - - - - - 12.2 1010.0 0.0
13/12:00am NNW 2 3 - - - - - - - 12.2 1010.3 0.0
 
Date/Time
EST
Wind Sea
Height
m
Swell Vis
km
Cloud Weather Temp
°C
Press
hPa
Rain since
9am
mm
Dir  Spd
kts
Gust
kts
Height
m
Period
s
Dir
12/11:30pm NNW 2 3 - - - - - - - 12.4 1010.3 0.0
12/11:00pm NNW 3 3 - - - - - - - 12.5 1010.5 0.0
12/10:30pm NNW 3 4 - - - - - - - 13.0 1010.7 0.0
12/10:00pm N 5 6 - - - - - - - 13.0 1010.8 0.0
12/09:30pm NNW 3 4 - - - - - - - 13.5 1010.9 0.0
12/09:00pm NNW 3 4 - - - - - - - 13.1 1011.0 0.0
12/08:30pm NNW 3 6 - - - - - - - 13.4 1010.9 0.0
12/08:00pm NNW 7 7 - - - - - - - 13.5 1010.9 0.0
12/07:30pm N 4 7 - - - - - - - 13.1 1010.9 0.0
12/07:00pm N 2 3 - - - - - - - 13.5 1010.8 0.0
12/06:30pm N 3 5 - - - - - - - 13.2 1010.7 0.0
12/06:00pm N 8 9 - - - - - - - 13.6 1010.4 0.0
12/05:30pm N 8 10 - - - - - - - 13.8 1010.4 0.0
12/05:00pm N 2 10 - - - - - - - 13.8 1010.3 0.0
12/04:30pm N 5 6 - - - - - - - 14.4 1010.1 0.0
12/04:00pm N 5 6 - - - - - - - 14.4 1010.2 0.0
12/03:30pm N 7 8 - - - - - - - 14.3 1010.2 0.0
12/03:00pm N 7 9 - - - - - - - 14.4 1010.3 0.0
12/02:30pm NNE 9 10 - - - - - - - 14.8 1010.6 0.0
12/02:00pm NNE 9 11 - - - - - - - 15.3 1010.9 0.0
12/01:30pm NE 6 7 - - - - - - - 16.8 1010.8 0.0
12/01:00pm CALM 0 1 - - - - - - - 16.3 1011.2 0.0
12/12:30pm SW 3 5 - - - - - - - 16.1 1011.5 0.0
12/12:00pm W 2 3 - - - - - - - 14.8 1012.5 0.0
12/11:30am W 7 8 - - - - - - - 14.4 1013.2 0.0
12/11:00am W 6 8 - - - - - - - 14.1 1013.7 0.0
12/10:30am N 3 5 - - - - - - - 14.6 1014.0 0.0
12/10:00am NNW 3 5 - - - - - - - 13.8 1014.2 0.0
12/09:30am WSW 5 5 - - - - - - - 12.5 1014.0 0.0
12/09:00am NNW 3 5 - - - - - - - 12.4 1014.4 0.0
12/08:30am WNW 6 8 - - - - - - - 10.8 1014.5 0.0
12/08:00am W 6 8 - - - - - - - 11.0 1014.3 0.0
12/07:30am N 9 11 - - - - - - - 11.9 1013.8 0.0
12/07:00am N 7 8 - - - - - - - 11.5 1013.7 0.0
12/06:30am N 8 10 - - - - - - - 11.9 1013.7 0.0
12/06:00am N 7 9 - - - - - - - 11.8 1013.7 0.0
12/05:30am N 12 15 - - - - - - - 11.8 1013.8 0.0
12/05:00am N 14 17 - - - - - - - 12.4 1013.4 0.0
12/04:30am N 15 19 - - - - - - - 12.6 1013.3 0.0
12/04:00am N 18 21 - - - - - - - 12.9 1013.4 0.0
12/03:30am N 15 16 - - - - - - - 12.9 1013.5 0.0
12/03:00am N 16 19 - - - - - - - 12.9 1013.8 0.0
12/02:30am N 20 23 - - - - - - - 12.9 1013.8 0.0
12/02:00am N 21 25 - - - - - - - 13.0 1014.3 0.0
12/01:30am N 15 20 - - - - - - - 12.9 1014.8 0.0
12/01:00am N 19 23 - - - - - - - 13.2 1014.9 0.0
12/12:30am N 17 20 - - - - - - - 13.1 1014.8 0.0
12/12:00am N 11 13 - - - - - - - 12.9 1015.3 0.0
 
Date/Time
EST
Wind Sea
Height
m
Swell Vis
km
Cloud Weather Temp
°C
Press
hPa
Rain since
9am
mm
Dir  Spd
kts
Gust
kts
Height
m
Period
s
Dir
11/11:30pm N 8 11 - - - - - - - 13.0 1015.9 0.0
11/11:00pm N 8 10 - - - - - - - 13.1 1015.9 0.0
11/10:30pm NNW 8 11 - - - - - - - 13.2 1016.2 0.0
11/10:00pm N 9 11 - - - - - - - 13.1 1016.3 0.0
11/09:30pm N 10 11 - - - - - - - 13.1 1016.7 0.0
11/09:00pm N 9 12 - - - - - - - 13.5 1017.0 0.0
11/08:30pm NNE 16 19 - - - - - - - 14.1 1016.9 0.0
11/08:00pm NNE 14 17 - - - - - - - 14.2 1016.9 0.0
11/07:30pm N 14 16 - - - - - - - 14.2 1017.3 0.0
11/07:00pm N 12 14 - - - - - - - 14.2 1017.3 0.0
11/06:30pm N 13 15 - - - - - - - 13.8 1017.2 0.0
11/06:00pm NNE 14 17 - - - - - - - 13.9 1016.6 0.0
11/05:30pm NNE 12 15 - - - - - - - 13.9 1016.6 0.0
11/05:00pm NNE 12 16 - - - - - - - 14.1 1016.4 0.0
11/04:30pm NNE 13 15 - - - - - - - 14.5 1016.4 0.0
11/04:00pm NNE 15 17 - - - - - - - 14.6 1016.4 0.0
11/03:30pm NNE 16 19 - - - - - - - 14.4 1016.6 0.0
11/03:00pm NNE 16 19 - - - - - - - 14.8 1016.4 0.0
11/02:30pm NNE 16 19 - - - - - - - 14.9 1016.6 0.0
11/02:00pm N 14 16 - - - - - - - 14.9 1016.8 0.0
11/01:30pm N 14 17 - - - - - - - 15.1 1017.3 0.0
11/01:00pm N 14 16 - - - - - - - 15.0 1017.5 0.0
11/12:30pm N 15 18 - - - - - - - 15.0 1017.9 0.0
11/12:00pm N 14 16 - - - - - - - 15.1 1018.6 0.0
11/11:30am N 15 19 - - - - - - - 15.3 1019.1 0.0
11/11:00am N 15 19 - - - - - - - 15.3 1019.5 0.0

Other formats

Comma delimited format used in spreadsheet applications
http://www.bom.gov.au/fwo/IDN60701/IDN60701.94934.axf

JavaScript Object Notation format (JSON) in row-major order
http://www.bom.gov.au/fwo/IDN60701/IDN60701.94934.json

Data quality

Most of these data are generated automatically and are frequently updated. Quality checks on data are not normally performed. It is possible for incorrect values to appear. Refer to information at About Latest Weather Observations and please check the disclaimer before using these data.